Time;durP1;ratioP1;P1;durP2;ratioP2;P2;SDS_P1;SDS_P2;PMS_P1;PMS_P2;Temp;Humidity;BMP_temperature;BMP_pressure;BME280_temperature;BME280_humidity;BME280_pressure;Samples;Min_cycle;Max_cycle;Signal;HPM_P1;HPM_P2
2022/06/26 00:02:25;;;;;;;;;;;;;;;26.77;43.03;100631.78;105158;1302;61298;-81
2022/06/26 00:04:50;;;;;;;;;;;;;;;26.77;42.96;100632.16;105237;1302;61134;-81
2022/06/26 00:07:16;;;;;;;;;;;;;;;26.77;42.88;100630.53;105197;1303;61387;-81
2022/06/26 00:09:42;;;;;;;;;;;;;;;26.76;43.05;100633.82;105337;1303;60073;-81
2022/06/26 00:12:09;;;;;;;;;;;;;;;26.77;43.08;100629.64;105276;1303;61176;-81
2022/06/26 00:14:34;;;;;;;;;;;;;;;26.76;43.09;100634.59;105180;1302;61263;-81
2022/06/26 00:17:00;;;;;;;;;;;;;;;26.76;43.17;100637.82;105268;1302;61362;-81
2022/06/26 00:19:25;;;;;;;;;;;;;;;26.77;43.17;100635.98;105244;1302;61368;-81
2022/06/26 00:21:51;;;;;;;;;;;;;;;26.76;42.97;100632.73;105127;1303;61256;-81
2022/06/26 00:24:16;;;;;;;;;;;;;;;26.76;43.08;100640.52;104968;1302;61240;-81
2022/06/26 00:26:42;;;;;;;;;;;;;;;26.76;43.23;100638.20;104964;1302;74100;-81
2022/06/26 00:29:07;;;;;;;;;;;;;;;26.76;42.91;100637.63;105200;1303;61283;-82
2022/06/26 00:31:33;;;;;;;;;;;;;;;26.76;43.15;100643.63;105150;1303;61368;-82
2022/06/26 00:33:58;;;;;;;;;;;;;;;26.76;43.17;100647.04;105172;1303;61338;-82
2022/06/26 00:36:24;;;;;;;;;;;;;;;26.76;43.06;100645.44;105306;1302;61392;-82
2022/06/26 00:38:49;;;;;;;;;;;;;;;26.76;43.35;100648.89;105151;1302;61282;-81
2022/06/26 00:41:15;;;;;;;;;;;;;;;26.75;43.21;100651.63;105187;1302;62062;-81
2022/06/26 00:43:40;;;;;;;;;;;;;;;26.75;43.38;100651.25;105112;1302;61682;-81
2022/06/26 00:46:06;;;;;;;;;;;;;;;26.76;43.33;100650.69;105098;1303;61285;-81
2022/06/26 00:48:32;;;;;;;;;;;;;;;26.75;43.41;100647.27;105309;1303;61363;-81
2022/06/26 00:50:57;;;;;;;;;;;;;;;26.75;43.26;100651.81;105286;1302;73119;-81
2022/06/26 00:53:23;;;;;;;;;;;;;;;26.75;43.18;100650.91;105164;1301;61300;-81
2022/06/26 00:55:48;;;;;;;;;;;;;;;26.75;43.59;100658.11;105162;1303;61290;-81
2022/06/26 00:58:14;;;;;;;;;;;;;;;26.75;43.43;100657.45;105253;1303;61848;-81
2022/06/26 01:00:41;;;;;;;;;;;;;;;26.75;43.46;100659.23;105245;1303;61131;-81
2022/06/26 01:03:07;;;;;;;;;;;;;;;26.74;43.52;100661.64;105141;1302;61255;-81
2022/06/26 01:05:33;;;;;;;;;;;;;;;26.75;43.30;100659.27;105137;1301;61338;-84
2022/06/26 01:07:58;;;;;;;;;;;;;;;26.75;43.58;100659.98;105189;1302;61254;-81
2022/06/26 01:10:24;;;;;;;;;;;;;;;26.74;43.65;100660.23;105175;1303;61288;-81
2022/06/26 01:12:50;;;;;;;;;;;;;;;26.75;43.47;100665.40;104965;1302;61287;-81
2022/06/26 01:15:16;;;;;;;;;;;;;;;26.74;43.42;100665.63;105164;1302;61388;-81
2022/06/26 01:17:41;;;;;;;;;;;;;;;26.74;43.51;100667.25;105128;1300;61257;-81
2022/06/26 01:20:07;;;;;;;;;;;;;;;26.74;43.50;100670.35;105248;1303;61264;-81
2022/06/26 01:22:32;;;;;;;;;;;;;;;26.74;43.43;100677.38;105296;1302;61295;-81
2022/06/26 01:24:58;;;;;;;;;;;;;;;26.74;43.55;100683.34;104930;1303;72652;-81
2022/06/26 01:27:24;;;;;;;;;;;;;;;26.74;43.62;100680.83;105260;1301;61232;-81
2022/06/26 01:29:49;;;;;;;;;;;;;;;26.74;43.43;100682.84;104972;1302;61292;-81
2022/06/26 01:32:15;;;;;;;;;;;;;;;26.74;43.65;100686.25;105159;1302;61227;-81
2022/06/26 01:34:41;;;;;;;;;;;;;;;26.74;43.58;100689.16;105176;1301;61239;-82
2022/06/26 01:37:07;;;;;;;;;;;;;;;26.74;43.40;100692.40;105263;1303;61384;-82
2022/06/26 01:39:32;;;;;;;;;;;;;;;26.74;43.69;100689.70;105137;1303;75627;-81
2022/06/26 01:41:58;;;;;;;;;;;;;;;26.73;43.46;100690.81;105152;1301;61278;-81
2022/06/26 01:44:23;;;;;;;;;;;;;;;26.73;43.56;100687.77;105100;1302;61361;-81
2022/06/26 01:46:49;;;;;;;;;;;;;;;26.73;43.72;100689.78;105123;1302;61972;-81
2022/06/26 01:49:14;;;;;;;;;;;;;;;26.73;43.50;100690.30;105160;1302;61275;-80
2022/06/26 01:51:40;;;;;;;;;;;;;;;26.73;43.65;100687.45;105244;1302;74879;-81
2022/06/26 01:54:05;;;;;;;;;;;;;;;26.73;43.67;100691.05;105131;1302;61374;-81
2022/06/26 01:56:30;;;;;;;;;;;;;;;26.72;43.79;100686.41;105262;1302;61266;-81
2022/06/26 01:58:56;;;;;;;;;;;;;;;26.73;43.81;100685.98;105171;1302;61290;-81
2022/06/26 02:01:21;;;;;;;;;;;;;;;26.72;43.77;100685.31;105263;1303;61406;-81
2022/06/26 02:03:48;;;;;;;;;;;;;;;26.73;43.81;100685.65;105128;1303;61119;-81
2022/06/26 02:06:14;;;;;;;;;;;;;;;26.72;43.81;100688.42;105110;1302;61326;-81
2022/06/26 02:08:39;;;;;;;;;;;;;;;26.72;43.76;100690.41;105202;1303;61484;-81
2022/06/26 02:13:49;;;;;;;;;;;;;;;26.71;43.88;100698.95;105117;1302;75805;-81
2022/06/26 02:16:19;;;;;;;;;;;;;;;26.72;43.87;100703.08;105208;1303;61284;-81
2022/06/26 02:18:46;;;;;;;;;;;;;;;26.71;43.75;100706.52;105195;1303;61315;-82
2022/06/26 02:21:12;;;;;;;;;;;;;;;26.71;43.88;100710.30;105142;1302;72728;-82
2022/06/26 02:23:37;;;;;;;;;;;;;;;26.72;43.84;100709.02;105237;1303;61126;-81
2022/06/26 02:26:03;;;;;;;;;;;;;;;26.71;43.78;100704.19;105254;1301;61377;-81
2022/06/26 02:28:29;;;;;;;;;;;;;;;26.71;43.89;100707.09;105173;1302;61281;-81
2022/06/26 02:30:55;;;;;;;;;;;;;;;26.71;43.92;100707.80;105151;1303;61180;-81
2022/06/26 02:33:22;;;;;;;;;;;;;;;26.71;43.90;100709.80;105154;1302;61375;-81
2022/06/26 02:35:47;;;;;;;;;;;;;;;26.71;43.83;100708.56;105203;1303;61233;-81
2022/06/26 02:38:15;;;;;;;;;;;;;;;26.71;43.80;100709.97;105258;1303;61281;-81
2022/06/26 02:40:41;;;;;;;;;;;;;;;26.71;43.81;100707.14;105024;1301;61262;-81
2022/06/26 02:43:06;;;;;;;;;;;;;;;26.71;43.85;100708.73;105258;1301;61268;-81
2022/06/26 02:45:33;;;;;;;;;;;;;;;26.71;43.86;100711.26;105202;1302;61268;-81
2022/06/26 02:47:58;;;;;;;;;;;;;;;26.70;43.95;100710.93;104991;1302;61251;-81
2022/06/26 02:50:24;;;;;;;;;;;;;;;26.71;43.86;100712.52;105136;1303;61310;-81
2022/06/26 02:52:49;;;;;;;;;;;;;;;26.71;43.81;100712.53;105075;1303;63200;-81
2022/06/26 02:55:15;;;;;;;;;;;;;;;26.71;44.05;100717.98;105221;1302;61286;-81
2022/06/26 02:57:40;;;;;;;;;;;;;;;26.71;44.01;100720.28;105284;1303;61264;-81
2022/06/26 03:00:06;;;;;;;;;;;;;;;26.71;43.83;100721.39;105271;1303;61274;-81
2022/06/26 03:02:32;;;;;;;;;;;;;;;26.71;44.01;100718.85;105250;1300;61230;-81
2022/06/26 03:04:58;;;;;;;;;;;;;;;26.70;43.95;100714.01;105206;1302;61363;-81
2022/06/26 03:07:23;;;;;;;;;;;;;;;26.70;44.04;100714.55;105116;1302;61310;-81
2022/06/26 03:09:48;;;;;;;;;;;;;;;26.70;43.90;100708.64;105239;1303;61905;-81
2022/06/26 03:12:14;;;;;;;;;;;;;;;26.70;43.85;100708.61;105182;1301;61740;-81
2022/06/26 03:14:39;;;;;;;;;;;;;;;26.70;43.91;100708.25;105124;1303;61722;-81
2022/06/26 03:17:05;;;;;;;;;;;;;;;26.71;43.84;100705.70;104955;1302;61224;-81
2022/06/26 03:19:31;;;;;;;;;;;;;;;26.70;44.09;100704.08;105141;1303;61387;-81
2022/06/26 03:21:56;;;;;;;;;;;;;;;26.70;44.19;100703.70;105148;1303;61296;-81
2022/06/26 03:24:22;;;;;;;;;;;;;;;26.70;44.08;100704.27;105274;1303;61294;-81
2022/06/26 03:26:47;;;;;;;;;;;;;;;26.70;43.93;100706.08;105127;1303;61258;-81
2022/06/26 03:29:13;;;;;;;;;;;;;;;26.71;43.83;100704.80;105195;1302;61272;-81
2022/06/26 03:31:38;;;;;;;;;;;;;;;26.70;43.97;100706.22;105151;1302;61282;-81
2022/06/26 03:34:04;;;;;;;;;;;;;;;26.70;43.98;100708.08;105122;1303;61323;-81
2022/06/26 03:36:29;;;;;;;;;;;;;;;26.70;43.96;100712.58;105250;1302;61270;-81
2022/06/26 03:38:55;;;;;;;;;;;;;;;26.70;43.98;100713.29;105216;1302;61570;-81
2022/06/26 03:41:21;;;;;;;;;;;;;;;26.71;44.03;100721.02;105156;1302;61719;-81
2022/06/26 03:43:46;;;;;;;;;;;;;;;26.71;44.13;100716.33;105153;1303;61338;-81
2022/06/26 03:46:12;;;;;;;;;;;;;;;26.71;44.03;100717.06;105132;1303;61338;-81
2022/06/26 03:48:37;;;;;;;;;;;;;;;26.71;43.96;100721.19;105141;1301;61354;-81
2022/06/26 03:51:03;;;;;;;;;;;;;;;26.71;43.85;100723.55;105196;1302;61311;-81
2022/06/26 03:53:29;;;;;;;;;;;;;;;26.70;43.98;100725.36;105255;1301;72458;-81
2022/06/26 03:55:54;;;;;;;;;;;;;;;26.71;44.01;100727.30;105164;1301;61284;-81
2022/06/26 03:58:20;;;;;;;;;;;;;;;26.71;44.12;100728.04;105138;1303;61227;-81
2022/06/26 04:00:45;;;;;;;;;;;;;;;26.71;44.03;100733.99;105181;1301;61283;-82
2022/06/26 04:03:11;;;;;;;;;;;;;;;26.72;44.08;100739.73;105287;1302;60471;-81
2022/06/26 04:05:45;;;;;;;;;;;;;;;26.72;43.98;100744.40;105340;1301;73686;-81
2022/06/26 04:08:11;;;;;;;;;;;;;;;26.72;44.15;100741.46;105331;1303;74801;-81
2022/06/26 04:10:36;;;;;;;;;;;;;;;26.72;44.35;100741.27;105342;1302;61325;-81
2022/06/26 04:13:03;;;;;;;;;;;;;;;26.73;44.25;100741.44;105365;1303;61340;-81
2022/06/26 04:15:28;;;;;;;;;;;;;;;26.73;44.14;100742.63;105183;1303;61329;-81
2022/06/26 04:17:54;;;;;;;;;;;;;;;26.74;44.01;100743.68;104984;1303;61278;-81
2022/06/26 04:20:20;;;;;;;;;;;;;;;26.74;43.97;100742.94;105339;1301;61294;-81
2022/06/26 04:22:58;;;;;;;;;;;;;;;26.74;44.28;100743.28;105257;1303;61135;-81
2022/06/26 04:25:23;;;;;;;;;;;;;;;26.74;44.11;100750.15;105171;1302;61269;-81
2022/06/26 04:27:49;;;;;;;;;;;;;;;26.74;44.19;100752.15;105241;1302;61271;-81
2022/06/26 04:30:15;;;;;;;;;;;;;;;26.74;43.95;100753.23;105147;1303;61265;-81
2022/06/26 04:32:40;;;;;;;;;;;;;;;26.74;44.16;100758.45;104989;1303;61374;-81
2022/06/26 04:35:06;;;;;;;;;;;;;;;26.74;44.17;100757.40;105223;1303;61222;-81
2022/06/26 04:37:31;;;;;;;;;;;;;;;26.74;44.16;100760.48;105171;1303;61616;-81
2022/06/26 04:39:57;;;;;;;;;;;;;;;26.74;44.23;100759.39;104969;1302;62462;-81
2022/06/26 04:42:22;;;;;;;;;;;;;;;26.73;44.04;100761.21;105194;1303;61358;-81
2022/06/26 04:44:47;;;;;;;;;;;;;;;26.73;44.26;100762.88;105209;1301;61360;-81
2022/06/26 04:47:14;;;;;;;;;;;;;;;26.73;44.03;100766.29;105185;1303;61239;-81
2022/06/26 04:49:40;;;;;;;;;;;;;;;26.73;43.97;100766.72;105171;1303;61400;-81
2022/06/26 04:52:05;;;;;;;;;;;;;;;26.73;43.94;100767.05;105169;1303;74627;-81
2022/06/26 04:54:31;;;;;;;;;;;;;;;26.73;44.18;100764.89;105186;1303;61333;-81
2022/06/26 04:56:56;;;;;;;;;;;;;;;26.72;44.09;100763.13;105173;1303;61258;-81
2022/06/26 04:59:22;;;;;;;;;;;;;;;26.72;44.00;100760.82;105212;1303;61371;-81
2022/06/26 05:01:48;;;;;;;;;;;;;;;26.72;43.98;100757.92;105152;1302;61226;-81
2022/06/26 05:04:13;;;;;;;;;;;;;;;26.72;44.22;100760.08;105132;1303;61363;-81
2022/06/26 05:06:39;;;;;;;;;;;;;;;26.72;44.32;100761.00;105157;1303;61381;-81
2022/06/26 05:09:05;;;;;;;;;;;;;;;26.72;44.02;100764.92;105162;1303;61256;-81
2022/06/26 05:11:30;;;;;;;;;;;;;;;26.72;44.37;100766.90;105289;1303;61416;-81
2022/06/26 05:13:56;;;;;;;;;;;;;;;26.72;44.10;100763.84;105249;1301;61283;-81
2022/06/26 05:16:21;;;;;;;;;;;;;;;26.72;43.99;100767.63;105310;1302;61240;-81
2022/06/26 05:18:47;;;;;;;;;;;;;;;26.72;43.98;100762.42;105014;1303;76750;-81
2022/06/26 05:21:13;;;;;;;;;;;;;;;26.72;44.30;100763.36;105272;1303;61285;-81
2022/06/26 05:23:39;;;;;;;;;;;;;;;26.72;44.14;100765.55;105170;1302;61357;-81
2022/06/26 05:26:05;;;;;;;;;;;;;;;26.71;44.00;100765.41;105191;1303;61331;-81
2022/06/26 05:28:30;;;;;;;;;;;;;;;26.71;44.25;100770.84;105268;1303;61266;-81
2022/06/26 05:30:56;;;;;;;;;;;;;;;26.71;44.29;100773.89;105030;1303;61577;-81
2022/06/26 05:33:21;;;;;;;;;;;;;;;26.71;44.27;100772.48;105189;1303;61257;-81
2022/06/26 05:35:47;;;;;;;;;;;;;;;26.71;44.46;100773.92;105193;1303;61288;-81
2022/06/26 05:38:12;;;;;;;;;;;;;;;26.70;44.20;100776.85;105175;1303;61265;-80
2022/06/26 05:40:38;;;;;;;;;;;;;;;26.71;44.11;100775.38;105022;1302;61211;-81
2022/06/26 05:43:03;;;;;;;;;;;;;;;26.71;44.42;100779.16;105188;1302;61253;-81
2022/06/26 05:45:29;;;;;;;;;;;;;;;26.71;44.27;100779.33;105207;1303;61292;-81
2022/06/26 05:47:54;;;;;;;;;;;;;;;26.71;44.26;100777.36;105191;1303;62459;-81
2022/06/26 05:50:21;;;;;;;;;;;;;;;26.70;44.29;100777.01;105169;1303;61352;-81
2022/06/26 05:52:48;;;;;;;;;;;;;;;26.71;44.22;100779.34;105126;1302;61323;-81
2022/06/26 05:55:14;;;;;;;;;;;;;;;26.70;44.31;100783.14;105148;1301;61250;-81
2022/06/26 05:57:48;;;;;;;;;;;;;;;26.70;44.14;100783.68;105148;1302;61245;-81
2022/06/26 06:00:14;;;;;;;;;;;;;;;26.71;44.21;100787.63;105217;1303;71718;-81
2022/06/26 06:02:40;;;;;;;;;;;;;;;26.71;44.08;100792.14;105206;1301;74624;-81
2022/06/26 06:05:07;;;;;;;;;;;;;;;26.71;44.39;100796.61;105154;1303;61319;-81
2022/06/26 06:07:32;;;;;;;;;;;;;;;26.71;44.37;100797.90;105155;1303;61250;-81
2022/06/26 06:09:57;;;;;;;;;;;;;;;26.71;44.17;100801.84;104938;1303;61354;-81
2022/06/26 06:12:23;;;;;;;;;;;;;;;26.71;44.17;100801.66;105230;1303;61280;-81
2022/06/26 06:14:49;;;;;;;;;;;;;;;26.72;44.00;100799.13;105283;1303;61360;-81
2022/06/26 06:19:59;;;;;;;;;;;;;;;26.72;44.09;100802.35;105266;1301;61258;-81
2022/06/26 06:22:24;;;;;;;;;;;;;;;26.72;44.02;100802.17;105112;1301;61285;-81
2022/06/26 06:24:49;;;;;;;;;;;;;;;26.72;44.31;100800.54;105156;1302;61259;-81
2022/06/26 06:27:15;;;;;;;;;;;;;;;26.72;44.44;100799.80;104550;1303;934671;-81
2022/06/26 06:29:40;;;;;;;;;;;;;;;26.72;44.31;100799.45;105292;1301;61725;-81
2022/06/26 06:32:06;;;;;;;;;;;;;;;26.72;44.26;100797.08;105228;1302;61259;-81
2022/06/26 06:34:31;;;;;;;;;;;;;;;26.72;44.27;100799.79;104975;1302;61403;-81
2022/06/26 06:36:57;;;;;;;;;;;;;;;26.73;44.53;100800.46;105278;1303;61345;-81
2022/06/26 06:39:23;;;;;;;;;;;;;;;26.72;44.30;100801.21;105248;1303;61304;-81
2022/06/26 06:41:48;;;;;;;;;;;;;;;26.72;44.39;100801.39;105171;1303;61276;-81
2022/06/26 06:44:14;;;;;;;;;;;;;;;26.72;44.45;100801.39;105190;1302;61371;-81
2022/06/26 06:46:39;;;;;;;;;;;;;;;26.72;44.40;100800.15;105104;1303;61347;-81
2022/06/26 06:49:05;;;;;;;;;;;;;;;26.73;44.49;100806.06;105129;1303;61275;-81
2022/06/26 06:51:31;;;;;;;;;;;;;;;26.72;44.54;100804.84;105239;1301;61281;-81
2022/06/26 06:53:57;;;;;;;;;;;;;;;26.73;44.26;100808.19;105236;1303;61291;-81
2022/06/26 06:56:23;;;;;;;;;;;;;;;26.73;44.35;100807.81;105257;1301;61265;-81
2022/06/26 06:58:49;;;;;;;;;;;;;;;26.73;44.53;100809.08;104992;1303;61260;-81
2022/06/26 07:01:14;;;;;;;;;;;;;;;26.73;44.31;100808.73;105265;1303;61304;-81
2022/06/26 07:03:39;;;;;;;;;;;;;;;26.73;44.17;100806.16;105189;1303;61316;-81
2022/06/26 07:06:05;;;;;;;;;;;;;;;26.73;44.47;100805.83;105189;1303;61293;-81
2022/06/26 07:08:30;;;;;;;;;;;;;;;26.74;44.47;100807.59;105151;1303;61345;-81
2022/06/26 07:10:56;;;;;;;;;;;;;;;26.74;44.43;100808.67;105137;1302;61286;-81
2022/06/26 07:13:21;;;;;;;;;;;;;;;26.73;44.63;100809.95;105225;1303;61339;-81
2022/06/26 07:15:47;;;;;;;;;;;;;;;26.74;44.52;100809.19;105160;1303;61341;-81
2022/06/26 07:18:13;;;;;;;;;;;;;;;26.74;44.43;100810.61;105120;1302;61289;-81
2022/06/26 07:20:39;;;;;;;;;;;;;;;26.74;44.44;100806.14;105162;1302;61272;-81
2022/06/26 07:23:04;;;;;;;;;;;;;;;26.74;44.65;100808.27;105241;1302;62129;-81
2022/06/26 07:25:30;;;;;;;;;;;;;;;26.74;44.36;100807.90;104938;1303;61530;-81
2022/06/26 07:27:55;;;;;;;;;;;;;;;26.74;44.29;100810.27;105166;1302;61265;-81
2022/06/26 07:30:21;;;;;;;;;;;;;;;26.74;44.47;100811.31;105062;1303;61285;-81
2022/06/26 07:32:47;;;;;;;;;;;;;;;26.74;44.57;100814.02;105150;1303;61233;-81
2022/06/26 07:35:12;;;;;;;;;;;;;;;26.74;44.41;100814.02;105129;1302;61266;-81
2022/06/26 07:37:38;;;;;;;;;;;;;;;26.75;44.49;100816.87;105151;1302;61431;-81
2022/06/26 07:40:05;;;;;;;;;;;;;;;26.75;44.30;100815.59;105277;1301;61273;-81
2022/06/26 07:42:30;;;;;;;;;;;;;;;26.74;44.59;100812.55;105003;1302;61133;-82
2022/06/26 07:44:56;;;;;;;;;;;;;;;26.75;44.54;100816.44;104996;1302;61258;-82
2022/06/26 07:47:21;;;;;;;;;;;;;;;26.75;44.63;100816.79;105193;1302;61316;-82
2022/06/26 07:49:47;;;;;;;;;;;;;;;26.75;44.78;100818.59;105245;1302;61368;-81
2022/06/26 07:52:12;;;;;;;;;;;;;;;26.76;44.53;100815.52;105164;1301;61299;-81
2022/06/26 07:54:38;;;;;;;;;;;;;;;26.76;44.57;100815.67;105133;1302;62594;-81
2022/06/26 07:57:03;;;;;;;;;;;;;;;26.76;44.81;100818.52;105105;1302;59291;-81
2022/06/26 07:59:29;;;;;;;;;;;;;;;26.76;44.76;100820.35;105110;1302;61277;-81
2022/06/26 08:01:55;;;;;;;;;;;;;;;26.77;44.50;100823.01;105236;1301;61303;-81
2022/06/26 08:04:21;;;;;;;;;;;;;;;26.77;44.58;100830.02;105280;1303;61285;-81
2022/06/26 08:06:47;;;;;;;;;;;;;;;26.77;44.59;100824.77;104959;1302;61410;-81
2022/06/26 08:09:12;;;;;;;;;;;;;;;26.77;44.61;100826.92;105239;1303;61299;-81
2022/06/26 08:11:37;;;;;;;;;;;;;;;26.78;44.96;100827.45;105109;1303;61416;-81
2022/06/26 08:14:03;;;;;;;;;;;;;;;26.78;44.77;100829.55;105124;1303;61287;-81
2022/06/26 08:16:29;;;;;;;;;;;;;;;26.79;44.68;100824.29;105129;1302;61264;-81
2022/06/26 08:18:55;;;;;;;;;;;;;;;26.79;44.73;100824.40;105143;1303;61279;-81
2022/06/26 08:24:04;;;;;;;;;;;;;;;26.81;44.72;100825.36;105156;1302;61278;-81
2022/06/26 08:26:30;;;;;;;;;;;;;;;26.81;44.71;100825.88;105272;1302;61367;-81
2022/06/26 08:28:55;;;;;;;;;;;;;;;26.82;44.68;100825.23;105280;1302;61265;-81
2022/06/26 08:31:21;;;;;;;;;;;;;;;26.82;45.08;100825.04;105118;1302;61275;-81
2022/06/26 08:33:46;;;;;;;;;;;;;;;26.83;44.87;100826.58;105174;1301;61362;-81
2022/06/26 08:36:12;;;;;;;;;;;;;;;26.83;44.79;100825.45;104929;1301;61221;-81
2022/06/26 08:38:39;;;;;;;;;;;;;;;26.84;44.94;100826.69;104899;1301;61358;-82
2022/06/26 08:41:05;;;;;;;;;;;;;;;26.84;44.75;100825.54;105076;1303;61276;-81
2022/06/26 08:43:30;;;;;;;;;;;;;;;26.85;44.82;100828.91;105117;1302;61291;-82
2022/06/26 08:45:56;;;;;;;;;;;;;;;26.85;44.91;100830.13;105007;1303;62638;-82
2022/06/26 08:48:24;;;;;;;;;;;;;;;26.86;45.17;100824.69;105096;1302;61244;-81
2022/06/26 08:50:49;;;;;;;;;;;;;;;26.86;45.05;100826.42;104908;1303;61220;-81
2022/06/26 08:53:15;;;;;;;;;;;;;;;26.87;45.17;100829.46;105067;1303;61308;-81
2022/06/26 08:55:41;;;;;;;;;;;;;;;26.87;45.09;100829.44;105026;1302;61312;-82
2022/06/26 08:58:07;;;;;;;;;;;;;;;26.87;45.02;100831.38;104865;1303;61223;-82
2022/06/26 09:00:33;;;;;;;;;;;;;;;26.87;44.97;100831.02;104971;1302;61368;-82
2022/06/26 09:02:59;;;;;;;;;;;;;;;26.88;45.07;100826.75;104888;1303;73072;-82
2022/06/26 09:05:26;;;;;;;;;;;;;;;26.89;45.14;100829.60;104870;1302;61101;-82
2022/06/26 09:07:52;;;;;;;;;;;;;;;26.89;45.22;100830.32;104711;1302;61256;-82
2022/06/26 09:10:18;;;;;;;;;;;;;;;26.89;44.90;100828.83;105066;1303;61267;-81
2022/06/26 09:12:50;;;;;;;;;;;;;;;26.90;45.02;100833.45;105257;1303;81255;-81
2022/06/26 09:15:17;;;;;;;;;;;;;;;26.90;44.87;100831.05;105126;1301;74807;-81
2022/06/26 09:17:52;;;;;;;;;;;;;;;26.91;45.03;100830.11;105211;1302;61938;-81
2022/06/26 09:20:18;;;;;;;;;;;;;;;26.91;45.10;100828.80;105204;1302;61372;-82
2022/06/26 09:22:53;;;;;;;;;;;;;;;26.92;45.17;100830.56;105124;1302;61346;-82
2022/06/26 09:25:19;;;;;;;;;;;;;;;26.92;45.04;100824.27;104894;1302;75770;-82
2022/06/26 09:27:45;;;;;;;;;;;;;;;26.92;44.83;100824.95;105234;1303;61339;-81
2022/06/26 09:30:10;;;;;;;;;;;;;;;26.92;45.13;100819.19;105149;1303;61269;-81
2022/06/26 09:32:36;;;;;;;;;;;;;;;26.92;45.07;100823.51;105259;1301;61226;-81
2022/06/26 09:35:01;;;;;;;;;;;;;;;26.92;45.10;100824.58;105235;1303;61278;-81
2022/06/26 09:37:33;;;;;;;;;;;;;;;26.92;45.17;100825.66;105257;1303;61400;-81
2022/06/26 09:40:02;;;;;;;;;;;;;;;26.92;45.20;100818.63;105138;1302;61355;-81
2022/06/26 09:42:27;;;;;;;;;;;;;;;26.92;44.98;100819.14;105204;1301;61970;-81
2022/06/26 09:44:53;;;;;;;;;;;;;;;26.93;45.14;100820.92;105115;1303;61287;-81
2022/06/26 09:47:22;;;;;;;;;;;;;;;26.93;45.02;100819.45;105145;1301;61236;-81
2022/06/26 09:49:48;;;;;;;;;;;;;;;26.93;44.95;100821.95;105174;1303;61281;-81
2022/06/26 09:52:14;;;;;;;;;;;;;;;26.94;45.17;100816.33;104960;1302;61251;-81
2022/06/26 09:54:40;;;;;;;;;;;;;;;26.95;45.02;100818.45;105136;1301;61253;-81
2022/06/26 09:57:05;;;;;;;;;;;;;;;26.95;44.88;100815.36;105179;1301;61306;-81
2022/06/26 09:59:31;;;;;;;;;;;;;;;26.95;45.11;100809.91;105161;1303;61332;-81
2022/06/26 10:07:24;;;;;;;;;;;;;;;26.96;45.01;100814.16;105191;1303;73029;-81
2022/06/26 10:09:50;;;;;;;;;;;;;;;26.95;45.07;100813.09;105161;1302;61372;-81
2022/06/26 10:12:15;;;;;;;;;;;;;;;26.95;45.05;100808.27;105130;1302;61471;-80
2022/06/26 10:14:42;;;;;;;;;;;;;;;26.96;45.22;100807.14;105122;1301;61268;-81
2022/06/26 10:17:27;;;;;;;;;;;;;;;26.95;44.92;100807.36;105216;1302;61255;-81
2022/06/26 10:19:52;;;;;;;;;;;;;;;26.95;45.16;100807.34;105236;1303;75963;-81
2022/06/26 10:22:17;;;;;;;;;;;;;;;26.95;45.08;100809.02;105226;1301;61229;-81
2022/06/26 10:24:50;;;;;;;;;;;;;;;26.95;44.98;100809.40;105252;1303;61246;-81
2022/06/26 10:27:15;;;;;;;;;;;;;;;26.94;44.93;100804.02;105150;1301;74884;-81
2022/06/26 10:29:41;;;;;;;;;;;;;;;26.94;45.09;100807.10;105243;1300;61257;-81
2022/06/26 10:32:07;;;;;;;;;;;;;;;26.94;44.82;100810.38;105191;1302;61261;-81
2022/06/26 10:34:32;;;;;;;;;;;;;;;26.94;44.91;100809.42;105200;1301;61521;-81
2022/06/26 10:36:59;;;;;;;;;;;;;;;26.94;44.95;100813.09;105153;1303;61258;-81
2022/06/26 10:39:45;;;;;;;;;;;;;;;26.93;44.89;100815.61;105163;1300;61352;-81
2022/06/26 10:45:27;;;;;;;;;;;;;;;26.93;44.90;100813.61;105243;1302;61137;-81
2022/06/26 10:47:55;;;;;;;;;;;;;;;26.94;45.13;100806.04;105101;1302;73883;-81
2022/06/26 10:50:33;;;;;;;;;;;;;;;26.93;45.13;100803.73;105272;1302;74608;-81
2022/06/26 10:53:17;;;;;;;;;;;;;;;26.93;45.05;100798.65;105150;1302;61269;-81
2022/06/26 10:55:49;;;;;;;;;;;;;;;26.93;44.89;100798.98;105254;1302;61227;-81
2022/06/26 10:58:35;;;;;;;;;;;;;;;26.93;45.09;100796.48;105254;1303;73768;-81
2022/06/26 11:01:02;;;;;;;;;;;;;;;26.93;44.99;100796.27;105265;1302;75856;-81
2022/06/26 11:03:28;;;;;;;;;;;;;;;26.94;45.15;100796.29;105118;1301;61547;-81
2022/06/26 11:05:59;;;;;;;;;;;;;;;26.93;45.24;100795.57;105153;1303;61273;-81
2022/06/26 11:08:24;;;;;;;;;;;;;;;26.93;44.88;100793.95;105221;1301;72828;-81
2022/06/26 11:10:51;;;;;;;;;;;;;;;26.93;44.95;100795.20;105268;1303;61260;-81
2022/06/26 11:13:17;;;;;;;;;;;;;;;26.93;45.15;100794.85;105173;1303;61256;-81
2022/06/26 11:15:43;;;;;;;;;;;;;;;26.93;44.88;100796.01;104929;1303;61268;-81
2022/06/26 11:18:09;;;;;;;;;;;;;;;26.93;45.06;100799.41;105236;1303;61264;-81
2022/06/26 11:20:56;;;;;;;;;;;;;;;26.93;44.94;100799.19;105144;1302;61282;-82
2022/06/26 11:23:26;;;;;;;;;;;;;;;26.93;45.01;100806.98;105200;1303;61386;-82
2022/06/26 11:26:01;;;;;;;;;;;;;;;26.93;45.03;100808.97;105120;1302;61160;-82
2022/06/26 11:28:45;;;;;;;;;;;;;;;26.93;45.11;100809.14;105201;1302;72812;-82
2022/06/26 11:31:12;;;;;;;;;;;;;;;26.94;45.15;100818.50;105150;1302;74639;-81
2022/06/26 11:33:39;;;;;;;;;;;;;;;26.93;45.14;100817.08;105148;1302;61313;-81
2022/06/26 11:36:06;;;;;;;;;;;;;;;26.93;45.05;100821.06;105204;1302;61275;-81
2022/06/26 11:38:31;;;;;;;;;;;;;;;26.93;45.11;100829.90;105127;1303;73826;-80
2022/06/26 11:40:58;;;;;;;;;;;;;;;26.93;44.98;100834.58;104929;1302;61297;-80
2022/06/26 11:43:23;;;;;;;;;;;;;;;26.93;45.00;100840.73;105285;1302;61294;-81
2022/06/26 11:45:48;;;;;;;;;;;;;;;26.93;44.96;100843.10;105165;1302;61417;-81
2022/06/26 11:48:17;;;;;;;;;;;;;;;26.93;45.20;100851.77;104886;1302;61330;-81
2022/06/26 11:50:46;;;;;;;;;;;;;;;26.92;45.12;100852.73;105156;1301;61263;-81
2022/06/26 11:53:17;;;;;;;;;;;;;;;26.92;45.29;100857.62;104997;1302;61323;-81
2022/06/26 11:55:46;;;;;;;;;;;;;;;26.93;45.17;100860.27;105267;1302;61150;-81
2022/06/26 11:58:11;;;;;;;;;;;;;;;26.92;45.22;100866.67;105241;1302;72636;-81
2022/06/26 12:00:37;;;;;;;;;;;;;;;26.92;45.10;100878.98;105163;1302;61975;-81
2022/06/26 12:03:03;;;;;;;;;;;;;;;26.92;45.00;100883.88;105241;1302;61249;-81
2022/06/26 12:05:30;;;;;;;;;;;;;;;26.92;45.17;100904.45;105221;1302;61218;-81
2022/06/26 12:07:55;;;;;;;;;;;;;;;26.91;45.10;100905.39;105117;1302;61275;-81
2022/06/26 12:10:28;;;;;;;;;;;;;;;26.92;45.23;100905.36;105173;1301;61251;-81
2022/06/26 12:12:54;;;;;;;;;;;;;;;26.91;45.26;100896.40;105177;1303;62231;-81
2022/06/26 12:15:19;;;;;;;;;;;;;;;26.91;45.25;100897.09;105244;1302;61257;-82
2022/06/26 12:17:52;;;;;;;;;;;;;;;26.91;45.24;100892.08;105143;1301;62414;-82
2022/06/26 12:20:18;;;;;;;;;;;;;;;26.91;45.03;100886.08;105186;1301;75838;-82
2022/06/26 12:22:46;;;;;;;;;;;;;;;26.91;44.97;100882.84;105133;1302;61394;-83
2022/06/26 12:25:12;;;;;;;;;;;;;;;26.91;44.99;100882.32;104914;1302;61193;-82
2022/06/26 12:27:39;;;;;;;;;;;;;;;26.91;45.32;100880.67;105139;1302;61277;-82
2022/06/26 12:30:14;;;;;;;;;;;;;;;26.90;45.20;100884.89;105124;1301;61239;-82
2022/06/26 12:32:40;;;;;;;;;;;;;;;26.91;45.14;100886.25;104901;1303;61368;-82
2022/06/26 12:35:05;;;;;;;;;;;;;;;26.91;45.28;100891.85;105153;1302;61556;-81
2022/06/26 12:37:32;;;;;;;;;;;;;;;26.91;45.03;100888.98;104873;1303;61224;-81
2022/06/26 12:39:58;;;;;;;;;;;;;;;26.90;45.26;100886.34;105212;1303;61243;-81